LJLJ 200000Z VRB02KT CAVOK 10/06 Q1026 NOSIG LJLJ 192330Z 31003KT CAVOK 11/06 Q1026 NOSIG LJLJ 192300Z VRB02KT CAVOK 11/05 Q1026 NOSIG LJLJ 192230Z 00000KT CAVOK 12/06 Q1026 NOSIG LJLJ 192200Z VRB02KT CAVOK 12/06 Q1026 NOSIG LJLJ 192130Z VRB01KT CAVOK 12/06 Q1026 NOSIG LJLJ 192100Z VRB01KT CAVOK 13/07 Q1026 NOSIG LJLJ 192030Z VRB02KT CAVOK 15/06 Q1026 NOSIG LJLJ 192000Z VRB02KT CAVOK 16/06 Q1026 NOSIG LJLJ 191930Z 10002KT CAVOK 16/07 Q1026 NOSIG LJLJ 191900Z 08004KT CAVOK 17/05 Q1025 NOSIG LJLJ 191830Z VRB02KT CAVOK 20/04 Q1025 NOSIG LJLJ 191800Z 20004KT 160V240 CAVOK 22/04 Q1025 NOSIG LJLJ 191730Z 20005KT 160V230 CAVOK 23/03 Q1025 NOSIG LJLJ 191700Z 23009KT 200V270 CAVOK 24/06 Q1025 NOSIG LJLJ 191630Z 26008KT 220V280 CAVOK 25/06 Q1025 NOSIG LJLJ 191600Z 27005KT 200V320 CAVOK 25/08 Q1025 NOSIG LJLJ 191530Z 02003KT 330V110 CAVOK 25/09 Q1025 NOSIG LJLJ 191500Z 04004KT 330V110 CAVOK 25/09 Q1025 NOSIG LJLJ 191430Z 05005KT 330V090 CAVOK 25/07 Q1025 NOSIG LJLJ 191400Z 06005KT 330V130 CAVOK 24/09 Q1025 NOSIG LJLJ 191330Z 08003KT 360V140 CAVOK 24/07 Q1026 NOSIG LJLJ 191300Z 10005KT 060V170 CAVOK 24/08 Q1026 NOSIG LJLJ 191230Z 08005KT 030V120 CAVOK 23/04 Q1027 NOSIG LJLJ 191200Z 07004KT 010V120 CAVOK 22/04 Q1027 NOSIG LJLJ 191130Z 10006KT 040V130 CAVOK 22/03 Q1027 NOSIG LJLJ 191100Z 12005KT 070V210 CAVOK 21/04 Q1027 NOSIG LJLJ 191030Z VRB02KT CAVOK 21/06 Q1028 NOSIG LJLJ 191000Z VRB05KT CAVOK 20/05 Q1028 NOSIG LJLJ 190930Z 11005KT 060V140 CAVOK 20/07 Q1028 NOSIG LJLJ 190900Z 11004KT 040V170 CAVOK 18/06 Q1029 NOSIG LJLJ 190830Z 07002KT CAVOK 18/06 Q1029 NOSIG LJLJ 190800Z VRB02KT CAVOK 18/08 Q1029 NOSIG LJLJ 190730Z VRB02KT CAVOK 16/08 Q1029 NOSIG LJLJ 190700Z 09003KT 030V140 CAVOK 16/09 Q1029 NOSIG LJLJ 190630Z VRB02KT CAVOK 14/08 Q1029 NOSIG LJLJ 190600Z VRB01KT CAVOK 13/07 Q1029 NOSIG LJLJ 190530Z VRB01KT CAVOK 11/08 Q1029 NOSIG LJLJ 190500Z VRB01KT CAVOK 08/07 Q1029 NOSIG LJLJ 190430Z VRB01KT CAVOK 06/06 Q1029 NOSIG LJLJ 190400Z 28002KT CAVOK 05/05 Q1029 NOSIG LJLJ 190330Z VRB01KT CAVOK 06/05 Q1029 NOSIG LJLJ 190300Z 28002KT CAVOK 06/05 Q1029 NOSIG LJLJ 190230Z 28002KT CAVOK 06/05 Q1029 NOSIG LJLJ 190200Z VRB02KT CAVOK 07/05 Q1029 NOSIG LJLJ 190130Z 00000KT CAVOK 07/05 Q1029 NOSIG LJLJ 190100Z 00000KT CAVOK 07/05 Q1029 NOSIG LJLJ 190030Z 30003KT CAVOK 07/05 Q1029 NOSIG LJLJ 190000Z 28002KT CAVOK 08/05 Q1029 NOSIG LJLJ 182330Z 33002KT CAVOK 08/05 Q1028 NOSIG LJLJ 182300Z VRB01KT CAVOK 09/06 Q1028 NOSIG LJLJ 182230Z 30004KT CAVOK 10/06 Q1028 NOSIG LJLJ 182200Z 28002KT CAVOK 11/06 Q1028 NOSIG LJLJ 182130Z 30003KT CAVOK 12/06 Q1028 NOSIG LJLJ 182100Z 00000KT CAVOK 12/06 Q1028 NOSIG LJLJ 182030Z 14005KT CAVOK 14/06 Q1027 NOSIG LJLJ 182000Z 14006KT CAVOK 14/06 Q1027 NOSIG LJLJ 181930Z 11008KT 9999 FEW060 15/06 Q1027 NOSIG LJLJ 181900Z 11008KT 9999 FEW060 16/06 Q1026 NOSIG LJLJ 181830Z 12007KT 9999 FEW060 17/06 Q1026 NOSIG LJLJ 181800Z 11008KT 9999 FEW060 18/07 Q1025 NOSIG LJLJ 181730Z 11008KT 9999 FEW060 19/07 Q1025 NOSIG LJLJ 181700Z 10009KT 9999 FEW060 20/08 Q1025 NOSIG LJLJ 181630Z 12010KT 9999 FEW055 21/07 Q1025 NOSIG LJLJ 181600Z 11011KT 9999 FEW055 21/08 Q1025 NOSIG LJLJ 181530Z 11011KT 9999 FEW050 SCT068 21/08 Q1024 NOSIG LJLJ 181500Z 11010KT 9999 FEW050 SCT068 22/09 Q1024 NOSIG LJLJ 181430Z 12010KT 080V160 9999 FEW050 SCT065 22/08 Q1024 NOSIG LJLJ 181400Z 12011KT 090V150 9999 FEW047 SCT060 22/08 Q1025 NOSIG LJLJ 181330Z 12009KT 090V150 9999 FEW043 SCT060 21/09 Q1025 NOSIG LJLJ 181300Z 12008KT 070V160 9999 FEW043 SCT060 22/09 Q1025 NOSIG LJLJ 181230Z 12008KT 090V160 9999 FEW040 SCT055 21/09 Q1025 NOSIG

METAR Messwerte "LJUBLJANA/BRNIK" LJLJ

Zurück zur Übersicht

Ortsname
Ländercode / m ü. NN
Zeit Temperatur Taupunkt Rel.
Luftfeuchte
Luftdruck:
Altimeter
NN
Station
Wind in Beaufort
(Knoten)
Sichtweite
(Meter)
Wolken
(Meter über Grund)
Wettererscheinung
LJUBLJANA/BRNIK
SI 363
Fr 20.05. 02:0010676 %1026
1027
983
Uml 1 (2)>= 10000Nicht signifikant 
LJUBLJANA/BRNIK
SI 363
Fr 20.05. 01:3011671 %1026
1027
983
NW 2 (3)>= 10000Nicht signifikant 
LJUBLJANA/BRNIK
SI 363
Fr 20.05. 01:0011566 %1026
1027
983
Uml 1 (2)>= 10000Nicht signifikant 
LJUBLJANA/BRNIK
SI 363
Fr 20.05. 00:3012667 %1026
1027
983
Windstill>= 10000Nicht signifikant 
LJUBLJANA/BRNIK
SI 363
Fr 20.05. 00:0012667 %1026
1027
983
Uml 1 (2)>= 10000Nicht signifikant 
LJUBLJANA/BRNIK
SI 363
Do 19.05. 23:3012667 %1026
1027
983
Uml 1 (1)>= 10000Nicht signifikant 
LJUBLJANA/BRNIK
SI 363
Do 19.05. 23:0013767 %1026
1026
983
Uml 1 (1)>= 10000Nicht signifikant 
LJUBLJANA/BRNIK
SI 363
Do 19.05. 22:3015655 %1026
1026
983
Uml 1 (2)>= 10000Nicht signifikant 
LJUBLJANA/BRNIK
SI 363
Do 19.05. 22:0016651 %1026
1026
983
Uml 1 (2)>= 10000Nicht signifikant 
LJUBLJANA/BRNIK
SI 363
Do 19.05. 21:3016755 %1026
1026
983
O 1 (2)>= 10000Nicht signifikant 
LJUBLJANA/BRNIK
SI 363
Do 19.05. 21:0017545 %1025
1025
982
O 2 (4)>= 10000Nicht signifikant 
LJUBLJANA/BRNIK
SI 363
Do 19.05. 20:3020435 %1025
1024
982
Uml 1 (2)>= 10000Nicht signifikant 
LJUBLJANA/BRNIK
SI 363
Do 19.05. 20:0022431 %1025
1024
982
SSW 2 (4)
SSO - WSW
>= 10000Nicht signifikant 
LJUBLJANA/BRNIK
SI 363
Do 19.05. 19:3023327 %1025
1024
982
SSW 2 (5)
SSO - SW
>= 10000Nicht signifikant 
LJUBLJANA/BRNIK
SI 363
Do 19.05. 19:0024631 %1025
1024
982
SW 3 (9)
SSW - W
>= 10000Nicht signifikant 
LJUBLJANA/BRNIK
SI 363
Do 19.05. 18:3025630 %1025
1024
982
W 3 (8)
SW - W
>= 10000Nicht signifikant 
LJUBLJANA/BRNIK
SI 363
Do 19.05. 18:0025834 %1025
1024
982
W 2 (5)
SSW - NW
>= 10000Nicht signifikant 
LJUBLJANA/BRNIK
SI 363
Do 19.05. 17:3025936 %1025
1024
982
NNO 2 (3)
NNW - OSO
>= 10000Nicht signifikant 
LJUBLJANA/BRNIK
SI 363
Do 19.05. 17:0025936 %1025
1024
982
NO 2 (4)
NNW - OSO
>= 10000Nicht signifikant 
LJUBLJANA/BRNIK
SI 363
Do 19.05. 16:3025732 %1025
1024
982
NO 2 (5)
NNW - O
>= 10000Nicht signifikant 
LJUBLJANA/BRNIK
SI 363
Do 19.05. 16:0024938 %1025
1024
982
ONO 2 (5)
NNW - SO
>= 10000Nicht signifikant 
LJUBLJANA/BRNIK
SI 363
Do 19.05. 15:3024734 %1026
1025
983
O 2 (3)
N - SO
>= 10000Nicht signifikant 
LJUBLJANA/BRNIK
SI 363
Do 19.05. 15:0024836 %1026
1025
983
O 2 (5)
ONO - S
>= 10000Nicht signifikant 
LJUBLJANA/BRNIK
SI 363
Do 19.05. 14:3023429 %1027
1026
984
O 2 (5)
NNO - OSO
>= 10000Nicht signifikant 
LJUBLJANA/BRNIK
SI 363
Do 19.05. 14:0022431 %1027
1026
984
ONO 2 (4)
N - OSO
>= 10000Nicht signifikant 
LJUBLJANA/BRNIK
SI 363
Do 19.05. 13:3022329 %1027
1026
984
O 2 (6)
NO - SO
>= 10000Nicht signifikant 
LJUBLJANA/BRNIK
SI 363
Do 19.05. 13:0021433 %1027
1026
984
OSO 2 (5)
ONO - SSW
>= 10000Nicht signifikant 
LJUBLJANA/BRNIK
SI 363
Do 19.05. 12:3021638 %1028
1027
985
Uml 1 (2)>= 10000Nicht signifikant 
LJUBLJANA/BRNIK
SI 363
Do 19.05. 12:0020537 %1028
1027
985
Uml 2 (5)>= 10000Nicht signifikant 
LJUBLJANA/BRNIK
SI 363
Do 19.05. 11:3020743 %1028
1027
985
OSO 2 (5)
ONO - SO
>= 10000Nicht signifikant 
LJUBLJANA/BRNIK
SI 363
Do 19.05. 11:0018645 %1029
1029
986
OSO 2 (4)
NO - S
>= 10000Nicht signifikant 
LJUBLJANA/BRNIK
SI 363
Do 19.05. 10:3018645 %1029
1029
986
ONO 1 (2)>= 10000Nicht signifikant 
LJUBLJANA/BRNIK
SI 363
Do 19.05. 10:0018852 %1029
1029
986
Uml 1 (2)>= 10000Nicht signifikant 
LJUBLJANA/BRNIK
SI 363
Do 19.05. 09:3016859 %1029
1029
986
Uml 1 (2)>= 10000Nicht signifikant 
LJUBLJANA/BRNIK
SI 363
Do 19.05. 09:0016963 %1029
1029
986
O 2 (3)
NNO - SO
>= 10000Nicht signifikant 
LJUBLJANA/BRNIK
SI 363
Do 19.05. 08:3014867 %1029
1029
986
Uml 1 (2)>= 10000Nicht signifikant 
LJUBLJANA/BRNIK
SI 363
Do 19.05. 08:0013767 %1029
1029
986
Uml 1 (1)>= 10000Nicht signifikant 
LJUBLJANA/BRNIK
SI 363
Do 19.05. 07:3011882 %1029
1030
986
Uml 1 (1)>= 10000Nicht signifikant 
LJUBLJANA/BRNIK
SI 363
Do 19.05. 07:008793 %1029
1030
986
Uml 1 (1)>= 10000Nicht signifikant 
LJUBLJANA/BRNIK
SI 363
Do 19.05. 06:3066100 %1029
1031
986
Uml 1 (1)>= 10000Nicht signifikant 
LJUBLJANA/BRNIK
SI 363
Do 19.05. 06:0055100 %1029
1031
986
W 1 (2)>= 10000Nicht signifikant 
LJUBLJANA/BRNIK
SI 363
Do 19.05. 05:306593 %1029
1031
986
Uml 1 (1)>= 10000Nicht signifikant 
LJUBLJANA/BRNIK
SI 363
Do 19.05. 05:006593 %1029
1031
986
W 1 (2)>= 10000Nicht signifikant 
LJUBLJANA/BRNIK
SI 363
Do 19.05. 04:306593 %1029
1031
986
W 1 (2)>= 10000Nicht signifikant 
LJUBLJANA/BRNIK
SI 363
Do 19.05. 04:007587 %1029
1030
986
Uml 1 (2)>= 10000Nicht signifikant 
LJUBLJANA/BRNIK
SI 363
Do 19.05. 03:307587 %1029
1030
986
Windstill>= 10000Nicht signifikant 
LJUBLJANA/BRNIK
SI 363
Do 19.05. 03:007587 %1029
1030
986
Windstill>= 10000Nicht signifikant 
LJUBLJANA/BRNIK
SI 363
Do 19.05. 02:307587 %1029
1030
986
WNW 2 (3)>= 10000Nicht signifikant 
LJUBLJANA/BRNIK
SI 363
Do 19.05. 02:008581 %1029
1030
986
W 1 (2)>= 10000Nicht signifikant 
LJUBLJANA/BRNIK
SI 363
Do 19.05. 01:308581 %1028
1029
985
NNW 1 (2)>= 10000Nicht signifikant 
LJUBLJANA/BRNIK
SI 363
Do 19.05. 01:009681 %1028
1029
985
Uml 1 (1)>= 10000Nicht signifikant 
LJUBLJANA/BRNIK
SI 363
Do 19.05. 00:3010676 %1028
1029
985
WNW 2 (4)>= 10000Nicht signifikant 
LJUBLJANA/BRNIK
SI 363
Do 19.05. 00:0011671 %1028
1029
985
W 1 (2)>= 10000Nicht signifikant 
LJUBLJANA/BRNIK
SI 363
Mi 18.05. 23:3012667 %1028
1029
985
WNW 2 (3)>= 10000Nicht signifikant 
LJUBLJANA/BRNIK
SI 363
Mi 18.05. 23:0012667 %1028
1029
985
Windstill>= 10000Nicht signifikant 
LJUBLJANA/BRNIK
SI 363
Mi 18.05. 22:3014658 %1027
1027
984
SO 2 (5)>= 10000Nicht signifikant 
LJUBLJANA/BRNIK
SI 363
Mi 18.05. 22:0014658 %1027
1027
984
SO 2 (6)>= 10000Nicht signifikant 
LJUBLJANA/BRNIK
SI 363
Mi 18.05. 21:3015655 %1027
1027
984
OSO 3 (8)>= 10000Leicht bewölkt (1800) 
LJUBLJANA/BRNIK
SI 363
Mi 18.05. 21:0016651 %1026
1026
983
OSO 3 (8)>= 10000Leicht bewölkt (1800) 
LJUBLJANA/BRNIK
SI 363
Mi 18.05. 20:3017648 %1026
1026
983
OSO 3 (7)>= 10000Leicht bewölkt (1800) 
LJUBLJANA/BRNIK
SI 363
Mi 18.05. 20:0018749 %1025
1025
982
OSO 3 (8)>= 10000Leicht bewölkt (1800) 
LJUBLJANA/BRNIK
SI 363
Mi 18.05. 19:3019746 %1025
1024
982
OSO 3 (8)>= 10000Leicht bewölkt (1800) 
LJUBLJANA/BRNIK
SI 363
Mi 18.05. 19:0020846 %1025
1024
982
O 3 (9)>= 10000Leicht bewölkt (1800) 
LJUBLJANA/BRNIK
SI 363
Mi 18.05. 18:3021740 %1025
1024
982
OSO 3 (10)>= 10000Leicht bewölkt (1700) 
LJUBLJANA/BRNIK
SI 363
Mi 18.05. 18:0021843 %1025
1024
982
OSO 4 (11)>= 10000Leicht bewölkt (1700) 
LJUBLJANA/BRNIK
SI 363
Mi 18.05. 17:3021843 %1024
1023
981
OSO 4 (11)>= 10000Wolkig (2100)
Leicht bewölkt (1500)
 
LJUBLJANA/BRNIK
SI 363
Mi 18.05. 17:0022943 %1024
1023
981
OSO 3 (10)>= 10000Wolkig (2100)
Leicht bewölkt (1500)
 
LJUBLJANA/BRNIK
SI 363
Mi 18.05. 16:3022841 %1024
1023
981
OSO 3 (10)
O - SSO
>= 10000Wolkig (2000)
Leicht bewölkt (1500)
 
LJUBLJANA/BRNIK
SI 363
Mi 18.05. 16:0022841 %1025
1024
982
OSO 4 (11)
O - SSO
>= 10000Wolkig (1800)
Leicht bewölkt (1400)
 
LJUBLJANA/BRNIK
SI 363
Mi 18.05. 15:3021946 %1025
1024
982
OSO 3 (9)
O - SSO
>= 10000Wolkig (1800)
Leicht bewölkt (1300)
 
LJUBLJANA/BRNIK
SI 363
Mi 18.05. 15:0022943 %1025
1024
982
OSO 3 (8)
ONO - SSO
>= 10000Wolkig (1800)
Leicht bewölkt (1300)
 
LJUBLJANA/BRNIK
SI 363
Mi 18.05. 14:3021946 %1025
1024
982
OSO 3 (8)
O - SSO
>= 10000Wolkig (1700)
Leicht bewölkt (1200)
 

Altimeter: Einstellung am Altimeter (Höhenmesser), die Höhe 0 muss auf diesen Luftdruckwert zeigen, damit das Gerät die Stationshöhe richtig anzeigt.

NN: Luftdruck reduziert auf "Normal Null", auf Meereshöhe, dieser von der Temperatur abhängige Wert wird bisweilen unkorrekt einfach als "Luftdruck" bezeichnet. Eigentlich nur eine fiktive Größe, die es erlaubt, Stationen auf unterschiedlichen Höhen miteinander zu vergleichen.

Station: Realer Luftdruck an der Station.